createdAt,value
2019-01-09T00:03:01.725Z,5.83
2019-01-09T00:09:07.607Z,6.10
2019-01-09T00:15:12.041Z,5.23
2019-01-09T00:21:17.167Z,5.13
2019-01-09T00:27:21.591Z,5.80
2019-01-09T00:33:25.931Z,5.90
2019-01-09T00:39:30.271Z,5.27
2019-01-09T00:45:34.583Z,5.33
2019-01-09T00:51:38.919Z,6.00
2019-01-09T00:57:43.256Z,5.80
2019-01-09T01:04:08.971Z,6.63
2019-01-09T01:10:22.157Z,7.33
2019-01-09T01:16:42.879Z,5.03
2019-01-09T01:22:59.600Z,5.40
2019-01-09T01:29:23.523Z,5.33
2019-01-09T01:35:54.454Z,5.47
2019-01-09T01:42:10.065Z,5.53
2019-01-09T01:48:23.543Z,4.90
2019-01-09T01:54:49.180Z,5.80
2019-01-09T02:01:25.293Z,6.37
2019-01-09T02:07:50.687Z,5.60
2019-01-09T02:14:13.293Z,5.70
2019-01-09T02:20:36.080Z,5.00
2019-01-09T02:26:44.392Z,5.73
2019-01-09T02:32:48.588Z,5.53
2019-01-09T02:38:52.802Z,5.47
2019-01-09T02:44:57.012Z,6.20
2019-01-09T02:51:01.199Z,8.00
2019-01-09T02:57:05.386Z,5.60
2019-01-09T03:03:09.734Z,6.23
2019-01-09T03:09:14.145Z,18.10
2019-01-09T03:15:18.404Z,11.50
2019-01-09T03:21:22.670Z,7.77
2019-01-09T03:27:27.800Z,5.83
2019-01-09T03:33:32.005Z,10.97
2019-01-09T03:39:36.274Z,14.33
2019-01-09T03:45:40.564Z,10.50
2019-01-09T03:51:44.820Z,5.33
2019-01-09T03:57:49.032Z,7.97
2019-01-09T04:03:53.458Z,5.50
2019-01-09T04:09:57.656Z,8.60
2019-01-09T04:16:01.921Z,7.80
2019-01-09T04:22:06.208Z,14.57
2019-01-09T04:28:12.084Z,11.63
2019-01-09T04:34:16.287Z,8.27
2019-01-09T04:40:20.544Z,10.33
2019-01-09T04:46:24.760Z,10.30
2019-01-09T04:52:28.977Z,14.20
2019-01-09T04:58:33.333Z,12.97
2019-01-09T05:04:37.588Z,12.93
2019-01-09T05:10:41.807Z,17.50
2019-01-09T05:16:46.024Z,12.37
2019-01-09T05:22:50.270Z,18.53
2019-01-09T05:28:55.320Z,18.23
2019-01-09T05:34:59.608Z,14.53
2019-01-09T05:41:03.820Z,10.90
2019-01-09T05:47:08.036Z,13.07
2019-01-09T05:53:12.248Z,9.43
2019-01-09T05:59:16.463Z,14.97
2019-01-09T06:05:20.734Z,9.70
2019-01-09T06:11:24.940Z,8.50
2019-01-09T06:17:29.154Z,12.50
2019-01-09T06:23:33.464Z,11.57
2019-01-09T06:29:38.520Z,10.23
2019-01-09T06:35:42.804Z,10.40
2019-01-09T06:41:47.059Z,30.57
2019-01-09T06:47:51.284Z,33.60
2019-01-09T06:53:55.529Z,17.83
2019-01-09T06:59:59.797Z,9.87
2019-01-09T07:06:04.008Z,7.60
2019-01-09T07:12:08.224Z,12.37
2019-01-09T07:18:12.412Z,137.37
2019-01-09T07:24:16.647Z,34.43
2019-01-09T07:30:21.751Z,18.87
2019-01-09T07:36:26.031Z,15.00
2019-01-09T07:42:30.252Z,26.83
2019-01-09T07:48:34.485Z,23.17
2019-01-09T07:54:38.696Z,12.13
2019-01-09T08:00:42.916Z,11.97
2019-01-09T08:06:47.146Z,13.87
2019-01-09T08:12:51.423Z,14.13
2019-01-09T08:18:55.693Z,15.67
2019-01-09T08:24:59.888Z,14.93
2019-01-09T08:31:04.969Z,14.17
2019-01-09T08:37:09.260Z,15.63
2019-01-09T08:43:13.527Z,16.77
2019-01-09T08:49:17.736Z,15.97
2019-01-09T08:55:21.952Z,20.53
2019-01-09T09:01:26.208Z,15.87
2019-01-09T09:07:30.468Z,15.53
2019-01-09T09:13:36.524Z,11.63
2019-01-09T09:19:40.787Z,14.17
2019-01-09T09:25:45.075Z,13.77
2019-01-09T09:31:50.036Z,12.40
2019-01-09T09:37:54.263Z,10.87
2019-01-09T09:43:58.480Z,10.40
2019-01-09T09:50:02.693Z,10.73
2019-01-09T09:56:06.984Z,12.27
2019-01-09T10:02:11.245Z,11.67
2019-01-09T10:08:15.480Z,13.97
2019-01-09T10:14:19.771Z,26.97
2019-01-09T10:20:24.037Z,17.23
2019-01-09T10:26:28.268Z,17.50
2019-01-09T10:32:33.323Z,16.97
2019-01-09T10:38:38.125Z,19.17
2019-01-09T10:44:42.676Z,18.60
2019-01-09T10:50:46.897Z,15.17
2019-01-09T10:56:51.189Z,18.73
2019-01-09T11:02:55.372Z,10.37
2019-01-09T11:08:59.556Z,11.33
2019-01-09T11:15:04.840Z,16.63
2019-01-09T11:21:09.033Z,14.77
2019-01-09T11:27:13.240Z,23.13
2019-01-09T11:33:18.304Z,19.17
2019-01-09T11:39:22.585Z,12.93
2019-01-09T11:45:26.802Z,25.50
2019-01-09T11:51:31.183Z,65.07
2019-01-09T11:57:35.405Z,93.07
2019-01-09T12:03:39.668Z,67.63
2019-01-09T12:09:43.929Z,34.53
2019-01-09T12:15:48.148Z,26.07
2019-01-09T12:21:52.404Z,17.10
2019-01-09T12:27:56.619Z,13.87
2019-01-09T12:34:01.652Z,18.80
2019-01-09T12:40:07.548Z,12.43
2019-01-09T12:46:11.768Z,13.20
2019-01-09T12:52:15.984Z,11.53
2019-01-09T12:58:20.277Z,13.33
2019-01-09T13:04:24.494Z,12.80
2019-01-09T13:10:28.708Z,18.43
2019-01-09T13:16:32.892Z,14.50
2019-01-09T13:22:37.085Z,16.17
2019-01-09T13:28:41.389Z,20.47
2019-01-09T13:34:46.484Z,15.87
2019-01-09T13:40:50.789Z,16.00
2019-01-09T13:46:55.006Z,20.93
2019-01-09T13:52:59.301Z,16.37
2019-01-09T13:59:03.505Z,21.70
2019-01-09T14:05:08.761Z,22.30
2019-01-09T14:11:12.968Z,14.23
2019-01-09T14:17:17.192Z,17.30
2019-01-09T14:23:21.532Z,16.20
2019-01-09T14:29:25.839Z,18.10
2019-01-09T14:35:30.811Z,23.07
2019-01-09T14:41:35.020Z,48.17
2019-01-09T14:47:39.365Z,41.97
2019-01-09T14:53:43.556Z,56.33
2019-01-09T14:59:47.880Z,52.97
2019-01-09T15:05:52.231Z,43.83
2019-01-09T15:11:56.460Z,43.50
2019-01-09T15:18:00.676Z,49.60
2019-01-09T15:24:08.554Z,57.97
2019-01-09T15:30:23.339Z,85.87
2019-01-09T15:36:27.792Z,89.40
2019-01-09T15:42:32.025Z,97.53
2019-01-09T15:48:36.248Z,96.17
2019-01-09T15:54:40.467Z,80.53
2019-01-09T16:00:44.683Z,88.13
2019-01-09T16:06:48.868Z,79.67
2019-01-09T16:12:53.093Z,87.53
2019-01-09T16:18:57.417Z,67.37
2019-01-09T16:25:01.688Z,46.43
2019-01-09T16:31:12.577Z,79.53
2019-01-09T16:37:18.522Z,84.73
2019-01-09T16:43:22.795Z,200.63
2019-01-09T16:49:28.160Z,123.13
2019-01-09T16:55:32.850Z,111.57
2019-01-09T17:01:37.150Z,132.50
2019-01-09T17:07:41.501Z,154.10
2019-01-09T17:13:45.947Z,107.93
2019-01-09T17:19:50.244Z,109.63
2019-01-09T17:25:54.507Z,157.43
2019-01-09T17:31:58.800Z,105.80
2019-01-09T17:38:03.973Z,127.23
2019-01-09T17:44:08.590Z,124.60
2019-01-09T17:50:19.224Z,146.50
2019-01-09T17:56:23.524Z,135.13
2019-01-09T18:02:27.899Z,174.87
2019-01-09T18:08:32.244Z,173.07
2019-01-09T18:14:36.553Z,184.63
2019-01-09T18:20:40.856Z,237.10
2019-01-09T18:26:45.291Z,194.67
2019-01-09T18:32:59.744Z,151.23
2019-01-09T18:39:10.116Z,142.60
2019-01-09T18:45:26.932Z,133.60
2019-01-09T18:51:40.436Z,140.53
2019-01-09T18:57:44.812Z,137.67
2019-01-09T19:03:49.116Z,121.53
2019-01-09T19:09:53.528Z,124.83
2019-01-09T19:15:57.755Z,136.33
2019-01-09T19:22:02.065Z,120.43
2019-01-09T19:28:06.479Z,133.20
2019-01-09T19:34:11.315Z,167.20
2019-01-09T19:40:15.642Z,160.77
2019-01-09T19:46:19.960Z,160.63
2019-01-09T19:52:24.193Z,157.33
2019-01-09T19:58:28.468Z,175.27
2019-01-09T20:04:32.772Z,209.27
2019-01-09T20:10:37.132Z,241.23
2019-01-09T20:16:39.761Z,182.87
2019-01-09T20:22:41.264Z,175.80
2019-01-09T20:28:42.945Z,171.30
2019-01-09T20:34:44.432Z,173.73
2019-01-09T20:40:46.641Z,178.40
2019-01-09T20:46:48.166Z,173.63
2019-01-09T20:52:50.029Z,217.87
2019-01-09T20:58:51.899Z,291.03
2019-01-09T21:04:53.269Z,289.57
2019-01-09T21:10:54.796Z,627.87
2019-01-09T21:16:56.186Z,404.13
2019-01-09T21:22:57.592Z,203.20
2019-01-09T21:28:59.205Z,214.03
2019-01-09T21:35:00.748Z,274.93
2019-01-09T21:41:03.194Z,300.60
2019-01-09T21:47:04.987Z,240.20
2019-01-09T21:53:06.322Z,219.67
2019-01-09T21:59:07.705Z,249.53
2019-01-09T22:05:09.076Z,199.47
2019-01-09T22:11:10.456Z,228.40
2019-01-09T22:17:13.066Z,181.53
2019-01-09T22:23:14.473Z,203.50
2019-01-09T22:29:16.184Z,182.20
2019-01-09T22:35:18.304Z,214.23
2019-01-09T22:41:20.553Z,235.33
2019-01-09T22:47:21.964Z,194.13
2019-01-09T22:53:23.288Z,258.80
2019-01-09T22:59:24.586Z,208.73
2019-01-09T23:05:26.032Z,233.70
2019-01-09T23:11:27.402Z,215.90
2019-01-09T23:17:28.847Z,253.30
2019-01-09T23:23:30.248Z,242.80
2019-01-09T23:29:31.761Z,224.20
2019-01-09T23:35:33.889Z,219.50
2019-01-09T23:41:36.249Z,244.33
2019-01-09T23:47:37.640Z,220.30
2019-01-09T23:53:38.944Z,201.77
2019-01-09T23:59:40.253Z,221.60
